createdAt,value
2018-06-19T00:00:13.774Z,20.30
2018-06-19T00:05:17.784Z,20.20
2018-06-19T00:10:23.092Z,20.10
2018-06-19T00:15:27.005Z,20.10
2018-06-19T00:20:30.714Z,20.10
2018-06-19T00:25:34.432Z,20.00
2018-06-19T00:30:39.601Z,20.00
2018-06-19T00:35:43.270Z,19.90
2018-06-19T00:40:47.284Z,19.90
2018-06-19T00:45:50.942Z,19.70
2018-06-19T00:50:54.588Z,19.70
2018-06-19T00:56:09.986Z,19.60
2018-06-19T01:01:13.635Z,19.60
2018-06-19T01:06:18.136Z,19.40
2018-06-19T01:11:21.813Z,19.30
2018-06-19T01:16:25.497Z,19.30
2018-06-19T01:21:29.950Z,19.20
2018-06-19T01:26:33.621Z,19.10
2018-06-19T01:31:37.264Z,19.00
2018-06-19T01:36:41.147Z,19.00
2018-06-19T01:41:45.026Z,19.00
2018-06-19T01:46:49.351Z,19.00
2018-06-19T01:51:54.069Z,19.00
2018-06-19T01:56:57.700Z,19.00
2018-06-19T02:02:01.371Z,18.90
2018-06-19T02:07:05.233Z,18.90
2018-06-19T02:12:09.486Z,19.00
2018-06-19T02:17:14.085Z,19.10
2018-06-19T02:22:17.728Z,19.10
2018-06-19T02:27:21.362Z,19.40
2018-06-19T02:32:25.378Z,19.40
2018-06-19T02:37:29.364Z,19.50
2018-06-19T02:42:33.934Z,19.60
2018-06-19T02:47:37.570Z,19.60
2018-06-19T02:52:41.573Z,19.50
2018-06-19T02:57:46.204Z,19.40
2018-06-19T03:02:50.239Z,19.40
2018-06-19T03:07:53.880Z,19.40
2018-06-19T03:12:57.844Z,19.30
2018-06-19T03:18:02.346Z,19.30
2018-06-19T03:23:06.028Z,19.30
2018-06-19T03:28:10.619Z,19.30
2018-06-19T03:33:14.805Z,19.20
2018-06-19T03:38:18.480Z,19.00
2018-06-19T03:43:22.496Z,19.00
2018-06-19T03:48:26.744Z,18.90
2018-06-19T03:53:30.386Z,18.80
2018-06-19T03:58:34.368Z,18.70
2018-06-19T04:03:39.779Z,18.70
2018-06-19T04:08:43.460Z,18.70
2018-06-19T04:13:47.092Z,18.70
2018-06-19T04:18:51.606Z,18.70
2018-06-19T04:23:55.287Z,18.70
2018-06-19T04:28:58.988Z,18.90
2018-06-19T04:34:03.154Z,19.00
2018-06-19T04:39:09.953Z,19.10
2018-06-19T04:44:13.616Z,19.10
2018-06-19T04:49:17.607Z,19.20
2018-06-19T04:54:21.235Z,19.20
2018-06-19T04:59:24.875Z,19.40
2018-06-19T05:04:28.829Z,19.60
2018-06-19T05:09:32.704Z,19.70
2018-06-19T05:14:38.525Z,19.70
2018-06-19T05:19:42.324Z,19.90
2018-06-19T05:24:46.430Z,19.90
2018-06-19T05:29:50.239Z,19.90
2018-06-19T05:34:53.906Z,20.10
2018-06-19T05:39:59.437Z,20.20
2018-06-19T05:45:03.137Z,20.40
2018-06-19T05:50:07.137Z,20.20
2018-06-19T05:55:10.821Z,19.80
2018-06-19T06:00:14.837Z,20.00
2018-06-19T06:05:18.722Z,20.00
2018-06-19T06:10:22.854Z,19.90
2018-06-19T06:15:26.512Z,19.70
2018-06-19T06:20:30.156Z,19.60
2018-06-19T06:25:33.901Z,19.80
2018-06-19T06:30:38.045Z,20.20
2018-06-19T06:35:43.430Z,20.20
2018-06-19T06:40:47.117Z,20.30
2018-06-19T06:45:51.784Z,20.70
2018-06-19T06:50:55.769Z,20.60
2018-06-19T06:55:59.434Z,20.60
2018-06-19T07:01:03.108Z,20.60
2018-06-19T07:06:06.791Z,20.90
2018-06-19T07:11:10.458Z,21.10
2018-06-19T07:16:14.122Z,21.10
2018-06-19T07:21:20.801Z,21.30
2018-06-19T07:26:24.842Z,21.70
2018-06-19T07:31:29.071Z,21.90
2018-06-19T07:36:33.517Z,22.10
2018-06-19T07:41:37.312Z,22.20
2018-06-19T07:46:41.889Z,22.20
2018-06-19T07:51:45.608Z,22.30
2018-06-19T07:56:49.267Z,22.70
2018-06-19T08:01:53.442Z,23.00
2018-06-19T08:06:57.278Z,23.20
2018-06-19T08:12:02.778Z,23.20
2018-06-19T08:17:07.157Z,23.40
2018-06-19T08:22:10.827Z,23.40
2018-06-19T08:27:14.528Z,23.50
2018-06-19T08:32:20.367Z,23.30
2018-06-19T08:37:24.783Z,23.30
2018-06-19T08:42:28.440Z,23.40
2018-06-19T08:47:32.096Z,23.30
2018-06-19T08:52:35.776Z,23.50
2018-06-19T08:57:39.685Z,23.80
2018-06-19T09:02:43.628Z,24.00
2018-06-19T09:07:47.351Z,23.70
2018-06-19T09:12:51.012Z,23.70
2018-06-19T09:17:54.688Z,23.80
2018-06-19T09:23:00.257Z,23.70
2018-06-19T09:28:05.509Z,23.90
2018-06-19T09:33:09.176Z,24.20
2018-06-19T09:38:12.849Z,24.80
2018-06-19T09:43:17.883Z,25.10
2018-06-19T09:48:32.771Z,25.30
2018-06-19T09:53:36.570Z,25.30
2018-06-19T09:58:40.462Z,25.20
2018-06-19T10:03:44.172Z,24.90
2018-06-19T10:08:47.933Z,24.70
2018-06-19T10:13:51.588Z,24.60
2018-06-19T10:18:56.516Z,24.70
2018-06-19T10:24:00.293Z,24.80
2018-06-19T10:29:04.558Z,25.40
2018-06-19T10:34:08.832Z,25.60
2018-06-19T10:39:12.881Z,25.60
2018-06-19T10:44:16.808Z,25.90
2018-06-19T10:49:20.513Z,26.30
2018-06-19T10:54:24.208Z,26.70
2018-06-19T10:59:28.666Z,26.40
2018-06-19T11:04:33.177Z,26.50
2018-06-19T11:09:36.792Z,26.30
2018-06-19T11:14:40.572Z,26.40
2018-06-19T11:19:44.282Z,26.70
2018-06-19T11:24:47.970Z,26.80
2018-06-19T11:29:52.140Z,27.20
2018-06-19T11:34:55.820Z,27.30
2018-06-19T11:39:59.580Z,27.60
2018-06-19T11:50:06.925Z,28.60
2018-06-19T11:55:11.465Z,28.60
2018-06-19T12:00:15.238Z,28.60
2018-06-19T12:05:19.203Z,28.40
2018-06-19T12:10:22.996Z,28.40
2018-06-19T12:15:27.216Z,28.60
2018-06-19T12:25:35.056Z,29.20
2018-06-19T12:30:38.716Z,29.30
2018-06-19T12:35:42.509Z,29.40
2018-06-19T12:40:46.211Z,29.90
2018-06-19T12:45:50.134Z,30.20
2018-06-19T12:52:08.947Z,30.60
2018-06-19T12:57:12.740Z,31.30
2018-06-19T13:02:16.428Z,31.30
2018-06-19T13:07:20.817Z,31.30
2018-06-19T13:12:36.174Z,31.60
2018-06-19T13:17:50.987Z,31.90
2018-06-19T13:22:56.365Z,32.10
2018-06-19T13:28:00.022Z,32.30
2018-06-19T13:33:03.709Z,32.50
2018-06-19T13:38:08.166Z,33.00
2018-06-19T13:44:22.531Z,33.20
2018-06-19T13:49:26.225Z,33.40
2018-06-19T13:54:31.703Z,33.40
2018-06-19T13:59:35.862Z,33.50
2018-06-19T14:04:39.553Z,33.40
2018-06-19T14:09:54.497Z,33.50
2018-06-19T14:14:58.533Z,33.80
2018-06-19T14:20:02.190Z,33.90
2018-06-19T14:25:06.160Z,34.20
2018-06-19T14:30:09.866Z,34.50
2018-06-19T14:35:14.211Z,34.60
2018-06-19T14:40:18.127Z,34.40
2018-06-19T14:45:21.791Z,34.30
2018-06-19T14:50:25.436Z,34.70
2018-06-19T14:55:29.088Z,35.00
2018-06-19T15:00:32.737Z,35.20
2018-06-19T15:05:36.573Z,34.90
2018-06-19T15:10:40.226Z,34.80
2018-06-19T15:15:44.196Z,35.00
2018-06-19T15:20:48.180Z,34.90
2018-06-19T15:25:51.887Z,35.00
2018-06-19T15:30:55.890Z,35.30
2018-06-19T15:35:59.527Z,35.30
2018-06-19T15:41:05.041Z,35.40
2018-06-19T15:46:09.202Z,35.40
2018-06-19T15:51:13.542Z,35.00
2018-06-19T15:56:17.200Z,35.10
2018-06-19T16:01:20.819Z,35.30
2018-06-19T16:06:24.491Z,34.80
2018-06-19T16:11:28.527Z,34.90
2018-06-19T16:16:32.884Z,34.90
2018-06-19T16:21:36.590Z,34.90
2018-06-19T16:26:40.263Z,34.90
2018-06-19T16:31:44.600Z,34.60
2018-06-19T16:36:48.353Z,34.50
2018-06-19T16:41:52.260Z,34.30
2018-06-19T16:46:56.808Z,34.10
2018-06-19T16:52:00.996Z,33.80
2018-06-19T16:57:04.816Z,33.80
2018-06-19T17:02:10.346Z,33.50
2018-06-19T17:07:14.512Z,33.50
2018-06-19T17:12:18.263Z,33.60
2018-06-19T17:17:22.550Z,33.30
2018-06-19T17:27:29.828Z,32.40
2018-06-19T17:32:33.582Z,32.40
2018-06-19T17:37:37.259Z,32.50
2018-06-19T17:42:40.937Z,32.30
2018-06-19T17:47:44.649Z,32.30
2018-06-19T17:52:48.588Z,32.20
2018-06-19T17:57:52.616Z,32.00
2018-06-19T18:02:56.287Z,32.00
2018-06-19T18:13:03.260Z,31.30
2018-06-19T18:18:07.341Z,31.20
2018-06-19T18:23:10.991Z,31.20
2018-06-19T18:28:14.695Z,31.00
2018-06-19T18:33:18.329Z,30.70
2018-06-19T18:38:21.980Z,30.40
2018-06-19T18:43:25.628Z,30.20
2018-06-19T18:48:29.273Z,29.90
2018-06-19T18:53:32.911Z,29.60
2018-06-19T18:58:37.300Z,29.40
2018-06-19T19:03:42.839Z,29.10
2018-06-19T19:08:46.512Z,28.80
2018-06-19T19:13:50.488Z,28.60
2018-06-19T19:24:03.877Z,28.00
2018-06-19T19:29:12.810Z,27.80
2018-06-19T19:34:18.241Z,27.50
2018-06-19T19:39:24.632Z,27.30
2018-06-19T19:44:28.788Z,27.00
2018-06-19T19:49:33.361Z,26.70
2018-06-19T19:54:39.899Z,26.50
2018-06-19T19:59:44.013Z,26.30
2018-06-19T20:04:47.694Z,26.10
2018-06-19T20:09:51.645Z,25.90
2018-06-19T20:14:55.295Z,25.70
2018-06-19T20:19:59.711Z,25.50
2018-06-19T20:25:03.434Z,25.30
2018-06-19T20:30:08.539Z,25.20
2018-06-19T20:35:12.213Z,25.00
2018-06-19T20:40:15.869Z,24.80
2018-06-19T20:45:22.350Z,24.70
2018-06-19T20:50:26.015Z,24.70
2018-06-19T20:55:29.720Z,24.50
2018-06-19T21:00:33.384Z,24.40
2018-06-19T21:05:37.074Z,24.30
2018-06-19T21:10:40.875Z,24.20
2018-06-19T21:15:44.536Z,24.20
2018-06-19T21:20:48.507Z,24.10
2018-06-19T21:25:54.942Z,24.20
2018-06-19T21:31:01.732Z,24.20
2018-06-19T21:36:08.511Z,24.20
2018-06-19T21:41:14.277Z,24.10
2018-06-19T21:46:20.531Z,24.00
2018-06-19T21:51:26.125Z,23.90
2018-06-19T21:56:31.856Z,23.80
2018-06-19T22:01:37.991Z,23.70
2018-06-19T22:06:44.413Z,23.50
2018-06-19T22:11:50.483Z,23.30
2018-06-19T22:16:56.666Z,23.10
2018-06-19T22:22:03.618Z,23.00
2018-06-19T22:27:09.545Z,22.90
2018-06-19T22:32:17.428Z,22.80
2018-06-19T22:37:23.317Z,22.70
2018-06-19T22:42:29.059Z,22.80
2018-06-19T22:47:34.617Z,22.70
2018-06-19T22:52:40.389Z,22.60
2018-06-19T22:57:47.194Z,22.50
2018-06-19T23:02:51.907Z,22.60
2018-06-19T23:07:56.959Z,22.60
2018-06-19T23:13:02.089Z,22.30
2018-06-19T23:18:05.723Z,22.20
2018-06-19T23:23:09.482Z,22.10
2018-06-19T23:28:13.368Z,22.10
2018-06-19T23:33:17.765Z,22.00
2018-06-19T23:38:21.514Z,21.90
2018-06-19T23:43:25.192Z,22.00
2018-06-19T23:48:28.855Z,22.00
2018-06-19T23:53:32.480Z,21.90
2018-06-19T23:58:36.307Z,21.80
